Date,TemperatureHighF,TemperatureAvgF,TemperatureLowF,DewpointHighF,DewpointAvgF,DewpointLowF,HumidityHigh,HumidityAvg,HumidityLow,PressureMaxIn,PressureMinIn,WindSpeedMaxMPH,WindSpeedAvgMPH,GustSpeedMaxMPH,PrecipitationSumIn
2013-1-1,44.6,39.3,34.9,42.2,34.0,22.0,97,82,58,30.12,29.99,4,0,6,0.22
2013-1-2,43.7,39.1,35.6,42.0,34.7,30.0,98,84,66,30.14,29.95,7,1,10,0.01
2013-1-3,44.6,35.0,27.0,32.4,28.3,21.3,90,77,53,30.28,30.09,8,1,12,0.00
2013-1-4,45.5,31.8,23.7,24.0,18.9,12.4,81,61,27,30.36,30.25,10,1,18,0.00
2013-1-5,57.6,37.1,20.3,29.2,19.1,13.9,77,52,22,30.37,30.22,5,1,10,0.00
2013-1-6,54.3,39.7,35.6,36.9,31.1,26.6,89,72,50,30.23,30.09,8,1,13,0.00
2013-1-7,59.9,40.9,26.1,30.4,24.1,18.0,82,55,23,30.38,30.22,8,2,14,0.00
2013-1-8,62.8,42.7,29.5,41.0,31.3,22.9,93,66,36,30.42,30.31,7,2,11,0.00
2013-1-9,52.5,45.6,41.0,47.3,43.6,38.4,98,93,83,30.47,30.36,4,0,6,0.00
2013-1-10,69.1,54.1,42.6,52.0,47.3,42.3,99,80,51,30.49,30.32,10,2,15,0.00
2013-1-11,65.3,53.7,48.4,55.6,51.5,46.6,99,92,66,30.33,30.14,10,3,15,0.13
2013-1-12,76.1,62.0,54.0,61.5,56.7,53.1,99,84,54,30.21,30.10,10,2,17,0.01
2013-1-13,76.3,63.1,55.6,57.5,54.3,49.8,89,75,44,30.13,30.05,8,3,14,0.02
2013-1-14,60.8,52.3,44.1,58.8,51.5,43.5,99,97,89,30.22,30.05,6,1,9,1.33
2013-1-15,52.7,48.4,44.6,52.0,47.8,43.8,99,98,96,30.16,30.00,8,2,14,0.73
2013-1-16,65.7,52.1,46.6,55.3,50.2,46.0,99,94,67,30.04,29.95,7,1,11,0.19
2013-1-17,49.6,41.1,31.8,48.5,39.9,28.3,98,95,86,30.23,29.84,6,1,15,1.33
2013-1-18,57.7,36.7,27.3,28.4,22.8,14.9,87,62,23,30.47,30.23,6,1,11,0.00
2013-1-19,66.2,41.7,26.4,28.6,23.7,18.5,78,55,18,30.42,30.16,6,1,10,0.00
2013-1-20,60.3,40.5,25.9,35.0,27.8,21.7,90,64,28,30.16,30.07,13,1,16,0.00
2013-1-21,55.9,37.5,24.1,31.8,20.2,8.6,91,55,23,30.11,29.99,8,2,11,0.00
2013-1-22,36.1,25.9,18.7,11.0,-0.7,-8.6,50,32,21,30.22,30.05,9,3,18,0.00
2013-1-23,51.8,32.3,23.5,21.9,8.6,-6.1,71,38,25,30.29,30.07,7,2,10,0.00
2013-1-24,42.6,33.7,23.4,30.6,12.0,-5.8,79,43,21,30.36,30.02,10,3,18,0.00
2013-1-25,35.2,27.1,21.6,33.4,13.9,-4.5,93,61,29,30.38,30.05,12,3,21,0.02
2013-1-26,53.1,36.9,27.0,34.0,26.8,19.9,94,70,29,30.32,30.11,8,1,14,0.01
2013-1-27,50.5,35.2,23.7,30.2,25.4,19.6,87,69,45,30.45,30.32,10,3,13,0.02
2013-1-28,72.9,49.5,33.4,46.6,37.1,26.6,88,64,35,30.40,30.22,9,2,15,0.00
2013-1-29,78.1,56.4,39.7,57.7,47.2,38.8,97,75,33,30.25,30.02,9,2,15,0.01
2013-1-30,64.2,57.7,45.0,59.6,54.3,37.4,99,89,74,30.02,29.54,14,4,21,1.70
2013-1-31,48.6,36.5,27.5,38.4,20.6,12.4,85,55,26,30.01,29.62,10,2,19,0.04
2013-2-1,42.1,27.8,18.1,28.7,10.9,-2.4,83,50,26,30.32,29.92,14,3,20,0.00
2013-2-2,48.9,29.4,16.7,30.6,13.8,4.0,80,54,25,30.32,30.02,12,2,18,0.00
2013-2-3,49.1,35.1,27.3,32.8,24.6,15.7,90,67,37,30.07,29.92,8,2,13,0.04
2013-2-4,57.7,37.1,23.0,25.7,19.4,14.6,73,52,24,30.11,29.97,7,2,11,0.00
2013-2-5,64.0,42.9,29.5,38.1,29.5,21.2,84,61,34,30.03,29.94,8,1,10,0.00
2013-2-6,63.9,44.8,30.7,36.5,26.6,18.8,94,55,20,30.23,30.03,8,1,11,0.00
2013-2-7,46.8,42.0,35.2,41.6,31.4,22.1,98,69,44,30.24,29.99,6,2,14,0.38
2013-2-8,57.4,42.5,33.6,45.0,36.3,24.0,99,81,42,30.18,29.93,8,1,17,0.01
2013-2-9,68.5,42.3,27.9,25.7,20.6,12.0,75,47,15,30.31,30.16,6,1,11,0.00
2013-2-10,54.5,44.1,39.9,43.7,25.8,14.6,99,53,22,30.35,30.11,12,5,21,0.34
2013-2-11,60.1,50.2,41.4,51.8,45.2,32.0,98,84,60,30.13,30.03,9,2,17,0.01
2013-2-12,56.7,45.0,37.0,37.8,28.3,18.2,90,55,25,30.16,29.93,8,1,12,0.14
2013-2-13,55.9,41.5,34.5,42.7,36.1,26.8,95,82,48,29.95,29.67,13,3,20,0.12
2013-2-14,63.3,42.1,31.5,31.4,26.1,20.8,77,56,22,30.06,29.93,7,2,10,0.00
2013-2-15,62.6,40.1,25.7,37.6,28.5,21.3,90,68,24,30.11,29.96,9,1,14,0.01
2013-2-16,36.5,32.0,30.4,26.7,25.7,23.2,82,77,62,30.04,29.93,4,0,8,0.00
2013-2-17,44.1,28.2,20.1,8.5,4.9,0.6,56,38,22,30.22,30.00,8,2,16,0.00
2013-2-18,59.0,37.4,16.5,23.2,16.1,5.1,74,45,23,30.31,30.12,11,3,18,0.00
2013-2-19,60.6,43.7,33.1,40.8,24.8,6.4,93,51,23,30.14,29.90,14,3,21,0.02
2013-2-20,46.9,34.8,26.6,13.1,7.4,2.0,47,33,21,30.16,30.07,13,3,18,0.00
2013-2-21,73.0,43.0,22.1,36.5,16.2,6.3,92,39,12,30.21,30.06,8,2,11,0.24
2013-2-22,44.8,39.1,35.1,39.2,35.9,31.1,98,88,73,30.23,30.06,14,4,21,0.26
2013-2-23,59.7,47.8,39.6,49.6,43.9,38.2,99,87,65,30.08,29.87,6,1,8,0.14
2013-2-24,59.0,44.6,30.0,42.1,28.8,19.1,98,59,23,30.08,29.89,12,2,16,0.00
2013-2-25,54.9,38.7,27.3,30.7,24.5,19.5,85,58,29,30.12,29.99,11,3,16,0.00
2013-2-26,45.1,36.9,32.9,40.1,35.2,30.6,99,94,81,30.00,29.58,12,4,18,0.71
2013-2-27,63.5,43.6,35.8,37.6,32.4,27.8,98,68,34,29.82,29.68,11,2,14,0.01
2013-2-28,45.7,36.1,31.8,33.0,23.9,19.7,87,62,42,29.93,29.75,10,2,17,0.01
2013-3-1,41.4,34.2,30.6,29.3,25.6,22.5,82,71,55,29.95,29.89,11,1,14,0.00
2013-3-2,44.4,33.2,26.4,28.8,23.4,15.7,82,68,43,29.97,29.86,10,1,17,0.00
2013-3-3,41.2,27.5,23.0,16.6,12.4,7.6,72,53,30,30.04,29.94,9,2,16,0.00
2013-3-4,62.6,37.6,20.5,21.0,13.5,7.2,65,40,19,30.13,30.02,9,1,11,0.00
2013-3-5,50.2,41.3,33.6,47.9,33.5,20.1,98,75,46,30.06,29.67,12,1,17,0.59
2013-3-6,36.3,29.8,25.5,25.2,21.9,18.5,83,72,51,30.16,29.73,8,0,14,0.01
2013-3-7,47.7,32.3,26.4,27.1,22.2,18.8,75,67,44,30.29,30.16,11,1,18,0.00
2013-3-8,59.2,37.0,22.6,23.9,20.4,15.8,81,55,23,30.34,30.25,10,1,13,0.00
2013-3-9,73.8,47.3,23.4,28.1,21.7,16.6,82,44,13,30.32,30.22,11,2,18,0.00
2013-3-10,69.4,54.7,44.2,35.1,29.6,26.0,54,39,21,30.27,30.14,15,5,24,0.00
2013-3-11,55.0,51.3,48.4,52.1,46.8,34.2,98,86,52,30.16,29.85,12,4,20,0.58
2013-3-12,53.8,44.4,33.4,51.6,37.4,27.2,99,78,43,30.07,29.81,13,3,19,0.18
2013-3-13,51.6,37.0,28.0,33.0,22.4,12.3,90,60,26,30.19,30.04,11,2,17,0.00
2013-3-14,50.7,34.6,23.9,14.8,11.6,6.5,57,40,21,30.29,30.18,10,2,13,0.00
2013-3-15,77.5,49.9,27.9,41.6,27.1,13.5,75,45,14,30.20,29.96,9,1,24,0.00
2013-3-16,82.9,64.4,46.9,46.0,41.9,37.6,75,47,22,29.96,29.81,17,2,24,0.00
2013-3-17,81.3,62.6,48.6,49.2,44.9,39.5,84,55,24,30.02,29.88,10,2,18,0.00
2013-3-18,48.6,43.4,39.2,44.2,41.3,38.8,99,93,79,30.05,29.84,14,4,23,0.41
2013-3-19,62.8,47.6,35.8,42.8,27.7,6.5,99,55,19,30.10,29.88,10,2,18,0.01
2013-3-20,62.1,41.5,27.7,29.6,15.2,6.5,92,38,19,30.11,29.85,8,1,15,0.00
2013-3-21,45.5,30.4,20.7,27.5,11.7,2.4,91,49,21,29.96,29.84,11,2,21,0.00
2013-3-22,58.8,36.6,20.3,22.3,12.9,6.1,65,40,21,30.03,29.95,8,1,11,0.00
2013-3-23,61.5,45.2,35.8,43.4,34.2,21.8,88,66,46,30.03,29.87,8,1,12,0.04
2013-3-24,55.4,43.7,37.8,44.5,40.7,37.2,99,90,62,29.91,29.52,11,4,20,0.73
2013-3-25,43.0,35.5,29.8,38.8,23.7,15.3,99,64,37,29.92,29.56,14,2,24,0.01
2013-3-26,43.9,33.0,27.7,28.5,23.2,20.3,81,68,47,30.19,29.91,11,2,17,0.00
2013-3-27,48.0,35.3,28.9,26.7,22.2,18.8,79,60,37,30.27,30.17,11,2,18,0.00
2013-3-28,56.5,38.5,23.4,26.3,18.0,12.2,76,48,22,30.30,30.22,12,2,15,0.00
2013-3-29,62.8,38.8,22.5,38.4,26.0,15.4,99,65,21,30.33,30.25,11,1,15,0.08
2013-3-30,71.1,51.3,38.1,46.1,39.8,36.5,99,70,33,30.25,30.06,6,1,9,0.12
2013-3-31,69.6,53.8,46.9,53.8,48.8,39.5,99,85,49,30.06,29.88,6,1,8,0.38
2013-4-1,68.0,53.0,42.3,50.6,42.6,31.7,99,72,34,30.03,29.91,8,1,18,0.01
2013-4-2,58.5,46.4,36.1,32.5,23.2,15.1,74,43,21,30.19,30.02,13,2,15,0.00
2013-4-3,67.8,48.9,32.7,24.9,18.4,11.4,49,31,17,30.26,30.16,8,1,9,0.00
2013-4-4,47.1,39.7,35.1,38.0,29.8,12.1,99,72,25,30.24,29.98,8,2,15,0.45
2013-4-5,65.5,46.9,37.2,43.1,37.2,29.4,99,74,29,30.11,29.96,8,1,11,0.01
2013-4-6,73.8,52.4,31.3,41.8,31.5,24.4,98,53,18,30.23,30.11,11,2,18,0.00
2013-4-7,77.4,60.2,46.0,45.5,38.4,31.4,68,46,26,30.22,30.10,10,3,15,0.00
2013-4-8,80.1,64.4,49.3,51.6,46.6,41.9,78,55,33,30.18,30.07,10,2,18,0.00
2013-4-9,90.9,68.4,46.9,56.4,51.4,45.4,97,59,29,30.24,30.13,8,2,15,0.00
2013-4-10,92.5,71.4,49.8,57.8,52.9,48.1,95,58,23,30.16,30.01,11,2,17,0.00
2013-4-11,81.3,68.4,59.0,63.5,55.3,50.8,99,66,36,30.03,29.77,11,3,21,1.43
2013-4-12,71.4,60.6,50.0,60.4,50.4,36.6,99,73,34,29.96,29.69,10,2,18,0.47
2013-4-13,77.4,58.0,44.8,41.1,35.6,23.2,72,48,17,30.11,29.95,11,2,14,0.00
2013-4-14,73.0,56.1,37.8,48.7,39.1,31.0,94,58,22,30.13,30.00,14,3,18,0.00
2013-4-15,78.8,61.0,51.6,56.2,53.1,47.9,99,78,44,30.22,30.01,11,2,16,0.09
2013-4-16,88.9,69.6,56.7,58.9,55.8,53.0,96,66,32,30.30,30.20,8,3,14,0.00
2013-4-17,81.3,66.6,59.2,63.4,58.2,54.7,96,75,47,30.30,30.16,8,2,12,0.15
2013-4-18,80.1,68.1,59.2,61.1,56.7,51.7,91,69,38,30.16,29.98,11,4,21,0.00
2013-4-19,69.3,59.4,43.0,64.5,55.4,34.6,97,87,71,30.01,29.79,11,3,25,0.45
2013-4-20,63.9,47.5,34.2,34.9,29.6,23.8,79,54,24,30.29,30.01,9,2,15,0.01
2013-4-21,70.5,49.9,31.3,37.9,30.2,23.2,96,54,20,30.41,30.29,8,2,17,0.00
2013-4-22,77.2,55.6,41.4,40.5,36.1,30.6,81,52,21,30.38,30.20,7,2,12,0.00
2013-4-23,82.9,59.6,35.6,45.1,36.4,27.4,85,46,14,30.28,30.10,9,2,17,0.00
2013-4-24,79.5,61.5,49.1,55.7,48.3,43.1,87,65,33,30.17,30.03,10,2,16,0.00
2013-4-25,71.8,54.3,41.7,45.1,31.6,16.3,89,51,13,30.36,30.16,8,2,12,0.00
2013-4-26,76.8,54.9,32.9,43.1,32.8,26.5,86,50,19,30.42,30.30,8,2,15,0.00
2013-4-27,56.5,52.4,50.4,52.5,49.0,42.1,99,89,65,30.39,30.24,12,1,13,0.64
2013-4-28,53.8,50.8,46.6,52.9,49.5,43.6,99,96,82,30.25,30.01,11,3,19,0.85
2013-4-29,84.9,63.4,51.3,57.8,53.0,49.0,99,73,35,30.09,29.97,7,1,11,0.02
2013-4-30,83.3,65.3,49.3,59.8,53.6,49.0,99,71,34,30.19,30.02,8,2,14,0.00
2013-5-1,73.8,62.3,55.2,55.7,51.8,48.9,86,70,43,30.30,30.19,14,3,19,0.00
2013-5-2,70.2,59.1,54.0,55.9,52.5,49.9,96,80,55,30.30,30.24,9,2,13,0.01
2013-5-3,66.4,57.7,54.1,52.3,49.0,42.9,90,74,49,30.24,30.09,9,3,17,0.00
2013-5-4,55.9,50.8,47.5,48.5,44.6,38.4,97,80,68,30.10,29.98,12,4,24,0.26
2013-5-5,50.2,48.4,45.9,49.9,46.9,44.5,99,95,89,30.00,29.83,14,4,23,2.21
2013-5-6,73.9,58.1,45.7,53.8,46.7,32.9,99,71,27,29.95,29.80,11,3,17,0.09
2013-5-7,76.5,55.7,39.9,50.8,45.4,39.7,99,73,30,30.00,29.90,7,1,14,0.01
2013-5-8,75.0,58.8,50.0,57.9,53.3,49.6,99,84,46,30.09,29.96,15,0,34,0.07
2013-5-9,86.0,65.2,52.3,59.7,53.8,49.5,99,72,34,30.16,30.07,5,1,8,0.01
2013-5-10,86.7,65.8,49.3,59.9,54.9,49.0,99,71,36,30.16,30.00,8,1,13,0.00
2013-5-11,81.5,65.8,57.0,61.9,57.8,53.5,94,77,47,30.03,29.90,4,0,5,0.00
2013-5-12,69.4,57.6,42.8,53.5,41.3,30.7,93,59,25,30.11,29.96,6,1,9,0.00
2013-5-13,70.9,53.0,34.7,40.0,31.1,24.5,87,49,18,30.22,30.11,6,1,10,0.00
2013-5-14,85.5,59.9,33.8,49.3,39.3,30.5,97,54,21,30.27,30.11,9,1,15,0.00
2013-5-15,92.7,70.5,47.5,58.4,51.9,46.5,98,58,26,30.19,30.04,5,1,10,0.00
2013-5-16,86.5,67.6,50.7,59.4,53.9,49.3,97,66,34,30.13,30.05,3,0,4,0.00
2013-5-17,88.0,69.3,51.8,60.9,55.5,49.6,99,67,33,30.17,30.08,8,1,16,0.00
2013-5-18,76.8,65.6,60.4,65.4,60.5,54.3,99,84,63,30.16,30.09,10,2,16,0.76
2013-5-19,85.5,68.1,61.2,66.2,63.0,60.3,98,85,49,30.16,30.06,8,1,13,0.09
2013-5-20,97.0,73.4,61.3,67.1,63.3,60.8,99,75,35,30.17,30.07,6,1,9,0.01
2013-5-21,96.3,74.1,61.0,67.3,62.6,58.2,99,72,36,30.13,30.01,9,1,13,0.00
2013-5-22,88.0,69.2,60.6,65.5,61.8,58.4,98,79,45,30.08,29.95,8,1,12,0.30
2013-5-23,91.8,70.4,60.3,67.2,59.4,51.3,99,73,32,30.03,29.92,8,1,10,0.00
2013-5-24,73.8,61.7,46.9,53.9,45.9,36.7,90,60,29,30.27,30.02,7,1,11,0.00
2013-5-25,80.6,60.0,39.0,47.4,39.0,27.8,98,54,16,30.36,30.24,4,1,8,0.00
2013-5-26,83.1,63.7,51.6,52.8,46.9,40.9,85,59,25,30.32,30.22,5,0,9,0.01
2013-5-27,88.3,67.8,47.1,58.8,53.0,46.5,99,64,35,30.30,30.18,11,2,16,0.00
2013-5-28,90.0,73.0,59.5,62.0,58.1,54.4,90,63,34,30.27,30.19,9,2,16,0.00
2013-5-29,93.0,75.0,59.5,62.7,58.8,48.8,95,62,25,30.29,30.20,10,2,17,0.00
2013-5-30,89.6,73.3,59.5,63.0,59.6,56.8,97,66,36,30.33,30.22,14,2,22,0.00
2013-5-31,89.6,74.9,62.6,63.8,59.4,55.9,92,62,34,30.28,30.17,9,2,15,0.00
2013-6-1,88.5,76.0,65.5,64.9,61.3,57.6,90,63,37,30.19,30.09,10,3,18,0.00
2013-6-2,75.9,67.2,64.6,70.1,65.2,63.5,99,94,75,30.13,29.99,6,1,11,0.48
2013-6-3,86.7,72.3,62.1,67.5,62.5,58.6,99,75,43,30.06,29.96,5,0,11,0.00
2013-6-4,91.0,73.4,57.7,66.2,60.7,54.6,99,69,33,30.15,30.05,7,1,14,0.00
2013-6-5,86.9,72.5,64.2,65.9,63.3,61.2,99,75,46,30.16,30.03,8,2,15,0.66
2013-6-6,85.5,71.4,63.9,69.3,65.3,63.0,99,83,53,30.05,29.86,6,2,13,0.05
2013-6-7,91.4,71.7,62.8,69.9,65.3,60.8,99,83,42,29.93,29.78,4,1,8,0.47
2013-6-8,88.9,71.5,57.6,66.7,61.7,57.3,99,75,43,30.16,29.93,3,0,4,0.25
2013-6-9,87.6,69.5,58.6,69.2,63.7,57.7,99,84,48,30.22,30.10,9,2,21,0.87
2013-6-10,90.3,72.8,64.8,68.8,63.8,57.1,99,77,36,30.10,29.97,7,1,12,0.52
2013-6-11,88.5,74.2,63.0,68.2,63.2,61.1,98,72,43,30.11,30.03,4,1,6,0.01
2013-6-12,99.3,78.4,60.8,72.7,66.4,59.5,98,71,39,30.13,30.04,4,0,8,0.00
2013-6-13,95.4,74.2,63.0,75.7,66.0,62.1,99,80,36,30.03,29.84,7,0,13,0.24
2013-6-14,87.3,70.9,55.2,64.8,57.3,52.5,99,67,35,30.14,29.93,7,1,11,0.01
2013-6-15,91.8,71.7,50.9,63.1,57.4,50.6,99,67,34,30.22,30.12,4,0,6,0.00
2013-6-16,95.0,75.6,57.6,65.8,62.0,56.7,99,67,35,30.22,30.10,4,0,8,0.00
2013-6-17,89.4,73.8,65.5,73.5,67.4,64.4,99,82,50,30.13,30.03,3,0,8,0.19
2013-6-18,82.4,70.9,61.3,71.6,65.8,59.3,99,85,60,30.04,29.91,4,1,8,0.01
2013-6-19,95.9,71.8,59.0,65.7,61.8,58.7,99,76,35,30.19,30.02,7,0,10,0.67
2013-6-20,89.6,73.3,60.1,70.3,63.0,59.8,99,74,41,30.29,30.18,7,1,11,0.01
2013-6-21,95.0,75.5,62.1,66.3,61.5,53.8,98,66,31,30.33,30.24,7,1,10,0.00
2013-6-22,97.0,74.9,56.1,62.9,59.8,55.8,99,65,31,30.32,30.19,6,1,10,0.00
2013-6-23,90.9,73.8,59.5,67.6,63.1,58.0,95,72,43,30.29,30.21,7,1,10,0.00
2013-6-24,95.2,76.2,64.0,73.4,66.4,63.2,99,75,41,30.29,30.18,4,1,8,0.04
2013-6-25,94.5,74.6,63.9,69.8,66.6,63.0,99,79,43,30.24,30.11,5,0,9,0.01
2013-6-26,94.5,75.5,64.2,73.6,68.3,63.3,99,81,46,30.15,30.01,4,0,8,0.20
2013-6-27,93.6,75.4,64.8,72.2,68.4,64.5,99,81,48,30.06,29.89,4,1,6,0.15
2013-6-28,98.1,76.9,63.9,76.2,66.7,61.1,99,76,34,29.93,29.75,8,0,16,0.02
2013-6-29,93.9,74.8,63.0,68.4,62.3,55.8,99,71,33,29.83,29.76,4,0,5,0.00
2013-6-30,94.1,72.8,57.6,66.6,61.4,55.9,99,73,32,29.91,29.80,6,1,11,0.00
2013-7-1,85.1,71.7,64.4,71.3,65.9,63.0,99,84,53,30.04,29.89,7,1,13,0.69
2013-7-2,90.7,74.1,64.2,71.6,65.9,61.8,99,79,41,30.20,30.03,11,3,16,0.15
2013-7-3,82.6,68.2,61.9,72.6,66.3,61.3,99,94,66,30.29,30.17,6,1,13,2.50
2013-7-4,79.5,67.5,61.9,71.4,65.9,61.3,99,95,72,30.28,30.21,8,1,14,1.30
2013-7-5,90.0,73.0,66.9,67.9,66.2,62.5,98,82,43,30.29,30.22,8,3,15,0.09
2013-7-6,89.1,73.6,65.8,71.2,67.5,64.8,99,83,48,30.27,30.18,10,2,17,0.61
2013-7-7,85.3,73.3,68.5,73.8,69.2,66.4,99,88,58,30.24,30.17,5,1,9,0.63
2013-7-8,94.5,77.8,68.2,72.7,67.5,63.6,99,75,42,30.28,30.19,4,0,7,0.04
2013-7-9,101.7,78.7,67.5,73.0,68.0,63.6,98,75,33,30.26,30.15,8,1,16,0.46
2013-7-10,92.7,74.2,66.9,73.7,69.0,66.2,99,86,49,30.22,30.06,5,1,8,1.74
2013-7-11,88.9,73.4,65.5,73.2,68.2,65.2,99,86,53,30.08,29.98,4,0,6,0.01
2013-7-12,90.5,74.8,64.4,70.2,65.5,61.6,99,76,42,30.10,29.98,5,1,8,0.09
2013-7-13,84.6,71.4,63.3,66.2,63.8,60.6,95,78,53,30.19,30.08,7,2,11,0.00
2013-7-14,75.9,69.9,65.1,70.9,67.6,63.9,98,93,80,30.35,30.17,8,2,16,0.90
2013-7-15,92.3,75.6,66.4,70.0,66.5,63.1,99,76,43,30.40,30.33,4,1,8,0.01
2013-7-16,99.3,76.6,64.0,76.5,68.0,63.2,99,79,36,30.42,30.33,6,0,11,0.38
2013-7-17,96.8,75.4,67.3,74.1,69.8,67.0,99,85,43,30.38,30.27,4,0,6,0.45
2013-7-18,96.8,78.1,67.3,72.7,68.8,66.5,99,77,43,30.32,30.17,7,1,11,0.00
2013-7-19,98.1,78.6,65.7,72.0,68.5,65.4,99,75,38,30.23,30.08,8,1,12,0.00
2013-7-20,93.0,76.6,66.9,71.6,68.3,65.7,97,78,46,30.15,30.04,6,0,11,0.00
2013-7-21,90.5,73.5,67.3,73.2,68.3,66.1,97,85,51,30.12,30.04,4,0,6,0.19
2013-7-22,97.3,78.0,67.3,70.8,67.7,63.1,98,75,37,30.10,29.92,8,1,14,0.14
2013-7-23,90.7,75.9,66.0,72.1,67.0,63.9,98,77,44,30.01,29.90,3,0,5,0.01
2013-7-24,91.8,75.8,64.8,71.0,66.0,63.1,99,75,43,29.98,29.90,4,0,6,0.00
2013-7-25,83.1,67.3,63.5,67.3,64.9,62.6,99,93,59,30.04,29.96,2,0,4,0.00
2013-12-22,66.9,58.9,55.0,60.4,55.9,52.3,97,90,66,30.10,29.93,9,2,15,1.72
2013-12-23,56.5,45.5,32.5,55.6,42.6,28.8,98,90,75,30.22,30.01,8,1,12,0.18
2013-12-24,40.1,29.4,18.9,29.0,19.3,9.8,86,67,41,30.36,30.20,8,2,12,0.00
2013-12-25,50.5,28.7,15.6,19.6,11.1,3.6,81,52,22,30.40,30.26,8,2,11,0.00
2013-12-26,55.9,33.2,20.1,24.8,17.9,8.8,76,56,25,30.32,30.23,7,1,10,0.00
2013-12-27,62.1,34.6,19.6,32.9,20.5,15.5,85,61,21,30.42,30.30,4,0,6,0.00
2013-12-28,47.3,34.0,20.7,38.3,26.6,16.3,94,76,45,30.37,30.07,7,1,13,5.79
2013-12-29,54.0,42.6,38.7,47.7,38.9,34.8,96,87,63,30.06,29.85,9,2,14,0.21
2013-12-30,41.5,38.0,33.3,37.4,33.5,28.9,87,84,79,30.16,30.00,8,1,11,0.00
2013-12-31,43.7,32.7,24.8,29.2,22.0,15.3,88,67,34,30.35,30.14,12,1,18,0.00
2014-1-1,50.2,34.6,22.1,27.4,21.7,16.3,81,61,32,30.34,30.11,8,2,13,0.00
2014-1-2,49.5,35.5,18.5,42.4,28.7,10.7,88,76,62,30.11,29.70,12,2,14,0.05